Time;durP1;ratioP1;P1;durP2;ratioP2;P2;SDS_P1;SDS_P2;PMS_P1;PMS_P2;Temp;Humidity;BMP_temperature;BMP_pressure;BME280_temperature;BME280_humidity;BME280_pressure;Samples;Min_cycle;Max_cycle;Signal;HPM_P1;HPM_P2
2023/01/26 06:34:06;;;;;;;16.08;7.38;;;;;;;;;;4791866;23;20064;-73
2023/01/26 06:36:32;;;;;;;17.23;8.15;;;;;;;;;;4916150;29;20056;-78
2023/01/26 06:38:58;;;;;;;15.27;7.55;;;;;;;;;;4915624;29;20024;-64
2023/01/26 06:41:24;;;;;;;15.98;8.38;;;;;;;;;;4916315;29;20032;-64
2023/01/26 06:43:50;;;;;;;21.90;9.60;;;;;;;;;;4915950;29;20039;-64
2023/01/26 06:46:17;;;;;;;20.95;10.45;;;;;;;;;;4915689;29;20028;-64
2023/01/26 06:48:43;;;;;;;17.50;8.82;;;;;;;;;;4898905;29;20050;-69
2023/01/26 06:51:15;;;;;;;15.82;7.57;;;;;;;;;;4915793;29;20433;-71
2023/01/26 06:53:53;;;;;;;17.95;8.43;;;;;;;;;;4915981;29;20408;-66
2023/01/26 06:56:20;;;;;;;19.88;9.05;;;;;;;;;;4915943;29;20040;-68
2023/01/26 06:58:46;;;;;;;22.73;9.32;;;;;;;;;;4915734;29;20036;-82
2023/01/26 07:01:19;;;;;;;19.27;9.13;;;;;;;;;;4915994;29;20032;-70
2023/01/26 07:03:45;;;;;;;22.75;8.93;;;;;;;;;;4898381;29;20064;-74
2023/01/26 07:06:11;;;;;;;20.80;9.48;;;;;;;;;;4915559;29;20567;-67
2023/01/26 07:08:37;;;;;;;22.20;9.10;;;;;;;;;;4915774;29;20028;-74
2023/01/26 07:11:03;;;;;;;23.15;9.77;;;;;;;;;;4915746;29;20036;-68
2023/01/26 07:13:29;;;;;;;23.00;10.30;;;;;;;;;;4915121;29;20043;-72
2023/01/26 07:16:21;;;;;;;21.42;10.40;;;;;;;;;;4915380;29;20484;-68
2023/01/26 07:18:47;;;;;;;20.90;9.82;;;;;;;;;;4912256;29;20036;-69
2023/01/26 07:21:14;;;;;;;22.05;10.48;;;;;;;;;;4915466;29;20043;-72
2023/01/26 07:23:41;;;;;;;23.67;10.55;;;;;;;;;;4919127;29;20059;-72
2023/01/26 07:26:07;;;;;;;21.60;10.05;;;;;;;;;;4924566;29;20071;-71
2023/01/26 07:28:34;;;;;;;20.17;9.57;;;;;;;;;;4892533;29;20869;-68
2023/01/26 07:31:01;;;;;;;18.65;9.98;;;;;;;;;;4923254;29;20516;-72
2023/01/26 07:33:30;;;;;;;20.65;9.55;;;;;;;;;;4908665;29;20056;-72
2023/01/26 07:35:56;;;;;;;22.08;9.73;;;;;;;;;;4904910;29;20028;-69
2023/01/26 07:38:22;;;;;;;19.95;9.60;;;;;;;;;;4904373;29;20083;-68
2023/01/26 07:40:49;;;;;;;23.90;10.13;;;;;;;;;;4903880;29;20035;-69
2023/01/26 07:43:15;;;;;;;19.63;10.48;;;;;;;;;;4905359;29;20028;-69
2023/01/26 07:45:45;;;;;;;21.35;10.05;;;;;;;;;;4904147;29;20020;-68
2023/01/26 07:48:11;;;;;;;20.38;10.18;;;;;;;;;;4902884;29;20037;-68
2023/01/26 07:50:37;;;;;;;23.77;10.52;;;;;;;;;;4904850;29;20027;-71
2023/01/26 07:53:03;;;;;;;20.42;9.90;;;;;;;;;;4903917;29;20041;-69
2023/01/26 07:55:30;;;;;;;20.30;10.43;;;;;;;;;;4903473;29;20052;-69
2023/01/26 07:57:56;;;;;;;22.23;11.20;;;;;;;;;;4904605;29;20391;-68
2023/01/26 08:00:22;;;;;;;20.27;9.63;;;;;;;;;;4903197;29;20778;-69
2023/01/26 08:02:51;;;;;;;23.25;10.60;;;;;;;;;;4911654;29;20047;-70
2023/01/26 08:05:18;;;;;;;22.63;10.40;;;;;;;;;;4914213;29;20032;-70
2023/01/26 08:07:44;;;;;;;21.75;10.75;;;;;;;;;;4914630;29;20115;-69
2023/01/26 08:10:11;;;;;;;20.70;10.38;;;;;;;;;;4914776;29;20032;-70
2023/01/26 08:12:37;;;;;;;20.90;10.18;;;;;;;;;;4896919;29;20048;-67
2023/01/26 08:15:03;;;;;;;24.13;10.65;;;;;;;;;;4896761;29;20489;-68
2023/01/26 08:17:32;;;;;;;20.35;10.23;;;;;;;;;;4914694;29;20032;-72
2023/01/26 08:19:58;;;;;;;22.35;11.05;;;;;;;;;;4913986;29;20020;-68
2023/01/26 08:22:24;;;;;;;20.35;9.93;;;;;;;;;;4914736;29;20059;-68
2023/01/26 08:24:50;;;;;;;19.45;10.75;;;;;;;;;;4897524;29;20511;-68
2023/01/26 08:27:16;;;;;;;28.25;11.38;;;;;;;;;;4914339;29;20032;-68
2023/01/26 08:29:42;;;;;;;58.30;16.92;;;;;;;;;;4915207;29;20083;-70
2023/01/26 08:32:09;;;;;;;49.10;15.85;;;;;;;;;;4914074;29;20496;-70
2023/01/26 08:34:35;;;;;;;26.60;11.40;;;;;;;;;;4914501;29;20037;-68
2023/01/26 08:37:01;;;;;;;37.05;13.82;;;;;;;;;;4914398;29;20021;-70
2023/01/26 08:39:28;;;;;;;37.15;14.52;;;;;;;;;;4914315;29;20032;-71
2023/01/26 08:41:54;;;;;;;52.83;20.33;;;;;;;;;;4914487;29;20604;-69
2023/01/26 08:44:20;;;;;;;51.80;18.73;;;;;;;;;;4914327;29;20035;-70
2023/01/26 08:46:46;;;;;;;35.65;14.82;;;;;;;;;;4916937;29;20026;-71
2023/01/26 08:49:12;;;;;;;33.58;14.13;;;;;;;;;;4917959;29;20465;-70
2023/01/26 08:51:39;;;;;;;29.90;13.05;;;;;;;;;;4917742;29;20432;-68
2023/01/26 08:54:07;;;;;;;22.02;10.30;;;;;;;;;;4917846;29;20042;-67
2023/01/26 08:56:33;;;;;;;27.38;12.32;;;;;;;;;;4917678;29;20040;-68
2023/01/26 08:58:59;;;;;;;30.45;13.02;;;;;;;;;;4917575;29;20036;-67
2023/01/26 09:01:25;;;;;;;24.63;11.32;;;;;;;;;;4917623;29;20054;-71
2023/01/26 09:03:52;;;;;;;23.80;12.02;;;;;;;;;;4917703;29;20527;-68
2023/01/26 09:06:18;;;;;;;27.15;12.48;;;;;;;;;;4917624;29;20032;-69
2023/01/26 09:08:44;;;;;;;24.85;11.60;;;;;;;;;;4917274;29;20036;-70
2023/01/26 09:11:11;;;;;;;24.60;11.63;;;;;;;;;;4917661;29;20119;-69
2023/01/26 09:13:37;;;;;;;25.05;12.07;;;;;;;;;;4917507;29;20036;-68
2023/01/26 09:16:07;;;;;;;25.15;12.30;;;;;;;;;;4917520;29;20039;-69
2023/01/26 09:18:33;;;;;;;23.73;12.00;;;;;;;;;;4917192;29;20480;-68
2023/01/26 09:21:06;;;;;;;21.38;10.52;;;;;;;;;;4917514;29;20119;-70
2023/01/26 09:23:33;;;;;;;21.73;10.35;;;;;;;;;;4899797;29;20043;-68
2023/01/26 09:25:59;;;;;;;24.38;10.63;;;;;;;;;;4917043;29;20032;-68
2023/01/26 09:28:25;;;;;;;26.23;9.98;;;;;;;;;;4917183;29;20072;-67
2023/01/26 09:30:51;;;;;;;18.60;10.20;;;;;;;;;;4917659;29;20032;-68
2023/01/26 09:33:17;;;;;;;16.25;9.05;;;;;;;;;;4916805;29;20114;-68
2023/01/26 09:35:43;;;;;;;22.92;10.93;;;;;;;;;;4917344;29;20028;-68
2023/01/26 09:38:09;;;;;;;16.45;8.90;;;;;;;;;;4917137;29;20527;-68
2023/01/26 09:40:42;;;;;;;22.85;9.48;;;;;;;;;;4917287;29;20148;-68
2023/01/26 09:43:20;;;;;;;23.95;10.52;;;;;;;;;;4917238;29;20036;-69
2023/01/26 09:45:51;;;;;;;23.13;10.82;;;;;;;;;;4916819;29;20035;-66
2023/01/26 09:48:20;;;;;;;22.02;9.25;;;;;;;;;;4916841;29;20036;-68
2023/01/26 09:50:52;;;;;;;20.13;9.75;;;;;;;;;;4916896;29;20107;-67
2023/01/26 09:53:20;;;;;;;19.52;9.65;;;;;;;;;;4916981;29;20532;-70
2023/01/26 09:55:48;;;;;;;22.17;9.38;;;;;;;;;;4916353;29;20436;-66
2023/01/26 09:58:17;;;;;;;19.88;9.25;;;;;;;;;;4916244;29;20036;-67
2023/01/26 10:00:48;;;;;;;20.25;10.32;;;;;;;;;;4916993;29;20507;-67
2023/01/26 10:03:14;;;;;;;21.55;10.07;;;;;;;;;;4916370;29;20099;-70
2023/01/26 10:05:43;;;;;;;14.93;8.05;;;;;;;;;;4916759;29;20548;-70
2023/01/26 10:08:13;;;;;;;18.23;8.35;;;;;;;;;;4916706;29;20612;-67
2023/01/26 10:10:42;;;;;;;16.95;8.82;;;;;;;;;;4916748;29;20114;-70
2023/01/26 10:13:12;;;;;;;19.20;8.70;;;;;;;;;;4916597;29;20040;-69
2023/01/26 10:15:39;;;;;;;19.75;9.82;;;;;;;;;;4898950;29;20369;-68
2023/01/26 10:18:11;;;;;;;22.38;10.35;;;;;;;;;;4916708;29;20393;-68
2023/01/26 10:20:42;;;;;;;19.35;9.30;;;;;;;;;;4916588;29;20536;-69
2023/01/26 10:23:15;;;;;;;16.48;8.52;;;;;;;;;;4916247;29;20441;-70
2023/01/26 10:25:43;;;;;;;19.27;9.02;;;;;;;;;;4916237;29;20020;-68
2023/01/26 10:28:12;;;;;;;19.55;9.18;;;;;;;;;;4916419;29;20464;-68
2023/01/26 10:30:39;;;;;;;14.90;8.07;;;;;;;;;;4916417;29;20111;-68
2023/01/26 10:33:09;;;;;;;25.50;10.60;;;;;;;;;;4915477;29;20127;-67
2023/01/26 10:35:35;;;;;;;20.48;9.63;;;;;;;;;;4916283;29;20032;-71
2023/01/26 10:38:01;;;;;;;18.55;9.57;;;;;;;;;;4916176;29;20047;-67
2023/01/26 10:40:27;;;;;;;15.95;7.97;;;;;;;;;;4916096;29;20366;-69
2023/01/26 10:42:55;;;;;;;20.70;8.93;;;;;;;;;;4916301;29;20080;-67
2023/01/26 10:45:26;;;;;;;17.67;9.63;;;;;;;;;;4916045;29;20087;-68
2023/01/26 10:48:25;;;;;;;13.35;6.82;;;;;;;;;;4916023;29;20020;-72
2023/01/26 10:50:52;;;;;;;13.63;6.78;;;;;;;;;;4839283;29;20544;-64
2023/01/26 10:53:18;;;;;;;13.70;7.22;;;;;;;;;;4838763;29;20048;-74
2023/01/26 10:55:57;;;;;;;13.30;7.70;;;;;;;;;;4833398;29;20515;-65
2023/01/26 10:58:41;;;;;;;16.15;7.90;;;;;;;;;;4819253;29;20507;-68
2023/01/26 11:01:13;;;;;;;14.05;7.15;;;;;;;;;;4819636;29;20038;-65
2023/01/26 11:03:39;;;;;;;11.68;6.28;;;;;;;;;;4819867;29;20398;-65
2023/01/26 11:06:11;;;;;;;13.52;6.95;;;;;;;;;;4820090;29;20036;-68
2023/01/26 11:08:38;;;;;;;16.67;8.77;;;;;;;;;;4817323;29;20043;-65
2023/01/26 11:11:09;;;;;;;19.67;9.15;;;;;;;;;;4819209;29;20075;-66
2023/01/26 11:13:36;;;;;;;15.85;8.45;;;;;;;;;;4819082;29;20199;-68
2023/01/26 11:16:19;;;;;;;14.55;7.53;;;;;;;;;;4820615;29;20045;-67
2023/01/26 11:18:57;;;;;;;15.35;7.57;;;;;;;;;;4819997;29;20045;-65
2023/01/26 11:21:36;;;;;;;14.90;7.38;;;;;;;;;;4834044;29;20057;-66
2023/01/26 11:24:10;;;;;;;14.65;7.30;;;;;;;;;;4837812;29;20033;-71
2023/01/26 11:26:49;;;;;;;15.23;8.18;;;;;;;;;;4857872;29;20488;-66
2023/01/26 11:29:15;;;;;;;15.27;7.63;;;;;;;;;;4914764;29;20101;-76
2023/01/26 11:31:59;;;;;;;21.40;9.77;;;;;;;;;;4914910;29;20080;-65
2023/01/26 11:34:44;;;;;;;16.42;7.60;;;;;;;;;;4877032;29;20056;-70
2023/01/26 11:37:29;;;;;;;12.85;6.75;;;;;;;;;;4877282;29;20040;-68
2023/01/26 11:40:13;;;;;;;16.75;8.07;;;;;;;;;;4876728;29;20496;-64
2023/01/26 11:42:39;;;;;;;18.70;8.95;;;;;;;;;;4872740;29;20514;-74
2023/01/26 11:45:14;;;;;;;13.65;6.70;;;;;;;;;;4863759;29;20029;-66
2023/01/26 11:47:40;;;;;;;14.48;7.55;;;;;;;;;;4867486;29;20053;-63
2023/01/26 11:50:15;;;;;;;16.33;7.43;;;;;;;;;;4861119;29;20021;-67
2023/01/26 11:52:59;;;;;;;13.65;6.53;;;;;;;;;;4861980;29;20045;-64
2023/01/26 11:55:45;;;;;;;14.73;6.47;;;;;;;;;;4866890;29;20024;-72
2023/01/26 11:58:29;;;;;;;13.25;6.90;;;;;;;;;;4867572;29;20033;-66
2023/01/26 12:01:09;;;;;;;16.60;7.28;;;;;;;;;;4871340;29;20045;-68
2023/01/26 12:03:49;;;;;;;14.25;7.32;;;;;;;;;;4865401;29;20061;-72
2023/01/26 12:06:34;;;;;;;16.33;8.50;;;;;;;;;;4859227;29;21417;-71
2023/01/26 12:09:17;;;;;;;16.77;8.88;;;;;;;;;;4867339;29;20037;-75
2023/01/26 12:12:09;;;;;;;16.13;8.05;;;;;;;;;;4866747;29;20052;-70
2023/01/26 12:15:02;;;;;;;16.13;7.55;;;;;;;;;;4864064;29;20037;-69
2023/01/26 12:17:35;;;;;;;13.00;6.70;;;;;;;;;;4863417;29;20405;-67
2023/01/26 12:20:20;;;;;;;17.02;8.57;;;;;;;;;;4863782;29;20048;-74
2023/01/26 12:22:52;;;;;;;18.23;8.63;;;;;;;;;;4872019;29;20025;-76
2023/01/26 12:25:37;;;;;;;12.63;6.60;;;;;;;;;;4865419;29;20036;-67
2023/01/26 12:28:09;;;;;;;18.60;9.05;;;;;;;;;;4868222;29;20554;-66
2023/01/26 12:30:47;;;;;;;19.42;10.02;;;;;;;;;;4871603;29;20044;-68
2023/01/26 12:33:14;;;;;;;19.90;9.82;;;;;;;;;;4889103;29;20049;-67
2023/01/26 12:35:46;;;;;;;16.85;7.68;;;;;;;;;;4906715;29;20591;-67
2023/01/26 12:38:14;;;;;;;12.57;6.40;;;;;;;;;;4905882;29;20087;-66
2023/01/26 12:40:48;;;;;;;12.27;6.80;;;;;;;;;;4913414;29;20032;-66
2023/01/26 12:43:17;;;;;;;14.02;7.57;;;;;;;;;;4917969;29;20496;-72
2023/01/26 12:45:45;;;;;;;15.10;8.10;;;;;;;;;;4917750;29;20095;-71
2023/01/26 12:48:17;;;;;;;15.02;8.05;;;;;;;;;;4917847;29;20103;-71
2023/01/26 12:50:46;;;;;;;18.02;8.77;;;;;;;;;;4917396;29;20051;-70
2023/01/26 12:53:30;;;;;;;20.75;11.13;;;;;;;;;;4918196;29;20149;-71
2023/01/26 12:56:25;;;;;;;24.55;12.32;;;;;;;;;;4917848;29;20611;-72
2023/01/26 12:58:52;;;;;;;20.38;10.32;;;;;;;;;;4858959;29;20034;-71
2023/01/26 13:01:20;;;;;;;26.73;12.23;;;;;;;;;;4858251;29;20033;-73
2023/01/26 13:03:52;;;;;;;24.20;10.85;;;;;;;;;;4859053;29;20034;-63
2023/01/26 13:06:19;;;;;;;28.80;12.90;;;;;;;;;;4857691;29;20039;-63
2023/01/26 13:08:52;;;;;;;24.35;11.60;;;;;;;;;;4857773;29;20386;-65
2023/01/26 13:11:36;;;;;;;25.33;11.77;;;;;;;;;;4859418;29;20090;-70
2023/01/26 13:14:22;;;;;;;19.63;9.50;;;;;;;;;;4858793;29;20101;-69
2023/01/26 13:16:48;;;;;;;22.80;11.40;;;;;;;;;;4858579;29;20030;-68
2023/01/26 13:19:33;;;;;;;26.25;12.00;;;;;;;;;;4858508;29;20108;-67
2023/01/26 13:22:00;;;;;;;20.77;10.25;;;;;;;;;;4842949;29;20472;-65
2023/01/26 13:24:26;;;;;;;23.75;11.90;;;;;;;;;;4858818;29;20037;-71
2023/01/26 13:26:53;;;;;;;25.38;11.27;;;;;;;;;;4858311;29;20040;-64
2023/01/26 13:29:26;;;;;;;28.13;14.27;;;;;;;;;;4858783;29;20437;-64
2023/01/26 13:31:53;;;;;;;30.33;14.52;;;;;;;;;;4857095;29;20048;-67
2023/01/26 13:34:21;;;;;;;24.88;11.82;;;;;;;;;;4863053;29;20818;-69
2023/01/26 13:36:48;;;;;;;26.67;12.85;;;;;;;;;;4897800;29;20076;-71
2023/01/26 13:39:31;;;;;;;24.25;12.13;;;;;;;;;;4898164;29;20040;-71
2023/01/26 13:41:57;;;;;;;30.15;13.43;;;;;;;;;;4898045;29;20535;-65
2023/01/26 13:44:26;;;;;;;25.98;13.23;;;;;;;;;;4898214;29;20032;-66
2023/01/26 13:46:54;;;;;;;25.55;12.38;;;;;;;;;;4898057;29;20046;-69
2023/01/26 13:49:22;;;;;;;29.60;14.65;;;;;;;;;;4897662;29;20460;-66
2023/01/26 13:51:48;;;;;;;26.98;13.65;;;;;;;;;;4896993;29;20120;-66
2023/01/26 13:54:16;;;;;;;28.27;12.43;;;;;;;;;;4897314;29;20060;-68
2023/01/26 13:56:43;;;;;;;22.83;12.20;;;;;;;;;;4897892;29;20023;-64
2023/01/26 13:59:09;;;;;;;25.38;14.30;;;;;;;;;;4897884;29;20029;-69
2023/01/26 14:01:42;;;;;;;28.55;14.75;;;;;;;;;;4897673;29;20028;-66
2023/01/26 14:04:13;;;;;;;28.27;14.63;;;;;;;;;;4897439;29;20032;-67
2023/01/26 14:06:41;;;;;;;25.10;13.25;;;;;;;;;;4897887;29;20063;-64
2023/01/26 14:09:11;;;;;;;27.23;13.52;;;;;;;;;;4897394;29;20108;-64
2023/01/26 14:11:38;;;;;;;27.48;12.73;;;;;;;;;;4897717;29;20056;-65
2023/01/26 14:14:04;;;;;;;29.48;15.00;;;;;;;;;;4897412;29;20440;-65
2023/01/26 14:16:31;;;;;;;28.10;13.95;;;;;;;;;;4897123;29;20032;-71
2023/01/26 14:19:04;;;;;;;35.15;15.95;;;;;;;;;;4897295;29;20164;-69
2023/01/26 14:21:33;;;;;;;31.20;15.27;;;;;;;;;;4897544;29;20055;-69
2023/01/26 14:24:00;;;;;;;32.30;15.98;;;;;;;;;;4897712;29;20036;-63
2023/01/26 14:26:26;;;;;;;23.63;12.48;;;;;;;;;;4896757;29;20025;-63
2023/01/26 14:28:52;;;;;;;24.08;12.93;;;;;;;;;;4897308;29;20036;-71
2023/01/26 14:31:19;;;;;;;22.70;11.82;;;;;;;;;;4897129;29;20048;-69
2023/01/26 14:33:46;;;;;;;25.52;13.52;;;;;;;;;;4876577;29;20420;-65
2023/01/26 14:36:13;;;;;;;23.77;12.45;;;;;;;;;;4878253;29;20025;-71
2023/01/26 14:38:41;;;;;;;28.67;14.57;;;;;;;;;;4877944;29;20033;-63
2023/01/26 14:41:09;;;;;;;26.25;15.15;;;;;;;;;;4878204;29;20032;-65
2023/01/26 14:43:35;;;;;;;28.52;14.38;;;;;;;;;;4877808;29;20216;-69
2023/01/26 14:46:06;;;;;;;28.77;14.18;;;;;;;;;;4878346;29;20092;-71
2023/01/26 14:48:36;;;;;;;40.13;19.08;;;;;;;;;;4878142;29;20042;-69
2023/01/26 14:51:03;;;;;;;31.02;16.75;;;;;;;;;;4877790;29;20109;-70
2023/01/26 14:53:29;;;;;;;31.67;15.27;;;;;;;;;;4878159;29;20485;-68
2023/01/26 14:55:55;;;;;;;33.55;17.10;;;;;;;;;;4878086;29;20041;-71
2023/01/26 14:58:24;;;;;;;29.27;14.85;;;;;;;;;;4877815;29;20112;-64
2023/01/26 15:00:50;;;;;;;38.30;15.82;;;;;;;;;;4877955;29;20033;-65
2023/01/26 15:03:25;;;;;;;33.00;16.35;;;;;;;;;;4877602;29;20105;-71
2023/01/26 15:06:03;;;;;;;32.15;16.27;;;;;;;;;;4877961;29;20534;-68
2023/01/26 15:08:29;;;;;;;36.65;18.08;;;;;;;;;;4878008;29;20065;-64
2023/01/26 15:13:48;;;;;;;34.53;16.15;;;;;;;;;;4877501;29;20172;-64
2023/01/26 15:16:20;;;;;;;42.85;19.85;;;;;;;;;;4878035;29;20025;-64
2023/01/26 15:18:57;;;;;;;43.80;19.45;;;;;;;;;;4878025;29;20044;-70
2023/01/26 15:21:27;;;;;;;40.38;20.10;;;;;;;;;;4877061;29;20256;-71
2023/01/26 15:23:54;;;;;;;43.45;20.40;;;;;;;;;;4877799;29;20033;-68
2023/01/26 15:26:26;;;;;;;32.88;16.00;;;;;;;;;;4877133;29;20038;-66
2023/01/26 15:28:53;;;;;;;39.15;18.33;;;;;;;;;;4877708;29;20032;-67
2023/01/26 15:31:20;;;;;;;33.05;16.75;;;;;;;;;;4876233;29;20037;-68
2023/01/26 15:33:48;;;;;;;28.88;14.85;;;;;;;;;;4891439;29;20063;-64
2023/01/26 15:36:23;;;;;;;35.17;17.52;;;;;;;;;;4895879;29;20033;-71
2023/01/26 15:38:49;;;;;;;32.38;15.82;;;;;;;;;;4895876;29;20047;-66
2023/01/26 15:41:15;;;;;;;20.73;9.73;;;;;;;;;;4896060;29;20489;-63
2023/01/26 15:43:41;;;;;;;24.70;12.35;;;;;;;;;;4896085;29;20043;-70
2023/01/26 15:46:08;;;;;;;27.77;12.77;;;;;;;;;;4896041;29;20082;-64
2023/01/26 15:48:34;;;;;;;28.13;14.13;;;;;;;;;;4896325;29;20060;-64
2023/01/26 15:51:01;;;;;;;27.00;14.35;;;;;;;;;;4881059;29;20075;-69
2023/01/26 15:53:27;;;;;;;38.83;18.23;;;;;;;;;;4877209;29;20048;-68
2023/01/26 15:55:54;;;;;;;38.20;17.25;;;;;;;;;;4876756;29;20391;-65
2023/01/26 15:58:24;;;;;;;41.47;19.85;;;;;;;;;;4877492;29;20132;-65
2023/01/26 16:00:51;;;;;;;61.50;26.75;;;;;;;;;;4877517;29;20448;-63
2023/01/26 16:03:19;;;;;;;38.15;17.98;;;;;;;;;;4877218;29;20052;-63
2023/01/26 16:05:48;;;;;;;45.65;21.63;;;;;;;;;;4877227;29;20038;-67
2023/01/26 16:08:17;;;;;;;37.67;19.30;;;;;;;;;;4877379;29;20033;-62
2023/01/26 16:10:44;;;;;;;33.08;17.23;;;;;;;;;;4877409;29;20033;-72
2023/01/26 16:13:11;;;;;;;32.15;14.75;;;;;;;;;;4877362;29;20052;-72
2023/01/26 16:15:38;;;;;;;21.30;9.25;;;;;;;;;;4877363;29;20530;-69
2023/01/26 16:18:04;;;;;;;16.42;8.35;;;;;;;;;;4877501;29;20493;-62
2023/01/26 16:20:30;;;;;;;23.15;10.95;;;;;;;;;;4877168;29;20051;-66
2023/01/26 16:22:56;;;;;;;24.23;12.20;;;;;;;;;;4876961;29;20045;-67
2023/01/26 16:25:26;;;;;;;27.30;13.13;;;;;;;;;;4877450;29;20025;-63
2023/01/26 16:27:52;;;;;;;33.25;15.20;;;;;;;;;;4877176;29;20089;-70
2023/01/26 16:30:19;;;;;;;19.75;10.15;;;;;;;;;;4877026;29;20071;-63
2023/01/26 16:32:45;;;;;;;24.35;13.27;;;;;;;;;;4883208;29;20564;-63
2023/01/26 16:35:12;;;;;;;19.20;10.35;;;;;;;;;;4895534;29;20075;-64
2023/01/26 16:37:38;;;;;;;30.48;14.10;;;;;;;;;;4895613;29;20021;-64
2023/01/26 16:40:05;;;;;;;29.95;15.30;;;;;;;;;;4895953;29;20032;-69
2023/01/26 16:42:31;;;;;;;24.05;11.77;;;;;;;;;;4894886;29;20025;-64
2023/01/26 16:44:57;;;;;;;23.35;11.57;;;;;;;;;;4895291;29;20025;-64
2023/01/26 16:47:23;;;;;;;28.92;14.02;;;;;;;;;;4895134;29;20039;-65
2023/01/26 16:49:49;;;;;;;31.20;14.95;;;;;;;;;;4895396;29;20028;-73
2023/01/26 16:52:15;;;;;;;22.77;12.50;;;;;;;;;;4895186;29;20025;-67
2023/01/26 16:54:44;;;;;;;26.73;13.77;;;;;;;;;;4895179;29;20040;-71
2023/01/26 16:57:10;;;;;;;28.70;15.18;;;;;;;;;;4895479;29;20029;-63
2023/01/26 16:59:36;;;;;;;27.10;15.30;;;;;;;;;;4895123;29;20037;-66
2023/01/26 17:02:02;;;;;;;30.52;16.20;;;;;;;;;;4904958;29;20027;-71
2023/01/26 17:04:28;;;;;;;31.30;17.15;;;;;;;;;;4910672;29;20091;-69
2023/01/26 17:06:54;;;;;;;30.58;16.83;;;;;;;;;;4915185;29;20028;-74
2023/01/26 17:09:22;;;;;;;34.90;16.45;;;;;;;;;;4917761;29;20473;-73
2023/01/26 17:11:48;;;;;;;38.45;18.33;;;;;;;;;;4917648;29;20036;-74
2023/01/26 17:14:14;;;;;;;29.38;15.95;;;;;;;;;;4917258;29;20036;-73
2023/01/26 17:16:40;;;;;;;30.33;15.00;;;;;;;;;;4917692;29;20059;-73
2023/01/26 17:19:06;;;;;;;28.05;14.90;;;;;;;;;;4917709;29;20805;-72
2023/01/26 17:21:32;;;;;;;23.38;11.40;;;;;;;;;;4917068;29;20024;-62
2023/01/26 17:23:58;;;;;;;28.55;14.50;;;;;;;;;;4917253;29;20032;-72
2023/01/26 17:26:25;;;;;;;33.00;16.15;;;;;;;;;;4917305;29;20036;-70
2023/01/26 17:28:53;;;;;;;32.92;16.98;;;;;;;;;;4917584;29;20029;-73
2023/01/26 17:31:20;;;;;;;28.80;15.75;;;;;;;;;;4917273;29;20429;-72
2023/01/26 17:33:47;;;;;;;26.90;14.50;;;;;;;;;;4916496;29;20127;-69
2023/01/26 17:36:14;;;;;;;24.10;13.30;;;;;;;;;;4917418;29;20036;-75
2023/01/26 17:38:40;;;;;;;24.00;12.38;;;;;;;;;;4916925;29;20071;-64
2023/01/26 17:41:07;;;;;;;25.73;13.55;;;;;;;;;;4917006;29;20020;-69
2023/01/26 17:43:33;;;;;;;25.98;13.38;;;;;;;;;;4916961;29;20044;-73
2023/01/26 17:46:07;;;;;;;27.10;13.85;;;;;;;;;;4917196;29;20099;-63
2023/01/26 17:48:34;;;;;;;28.20;14.50;;;;;;;;;;4916826;29;20059;-71
2023/01/26 17:51:00;;;;;;;27.48;14.23;;;;;;;;;;4916861;29;20048;-67
2023/01/26 17:53:26;;;;;;;61.00;27.33;;;;;;;;;;4917140;29;20097;-71
2023/01/26 17:55:53;;;;;;;72.93;36.75;;;;;;;;;;4916649;29;20167;-69
2023/01/26 17:58:19;;;;;;;40.65;19.70;;;;;;;;;;4916868;29;20032;-66
2023/01/26 18:00:45;;;;;;;60.88;28.30;;;;;;;;;;4916789;29;20038;-63
2023/01/26 18:03:11;;;;;;;73.88;31.15;;;;;;;;;;4916709;29;20047;-75
2023/01/26 18:05:37;;;;;;;60.50;26.70;;;;;;;;;;4916733;29;20032;-66
2023/01/26 18:08:03;;;;;;;56.47;25.33;;;;;;;;;;4916181;29;20051;-66
2023/01/26 18:10:29;;;;;;;79.75;38.80;;;;;;;;;;4916413;29;20031;-63
2023/01/26 18:12:56;;;;;;;42.05;20.92;;;;;;;;;;4916358;29;20036;-72
2023/01/26 18:15:22;;;;;;;48.88;22.58;;;;;;;;;;4916298;29;20044;-61
2023/01/26 18:17:48;;;;;;;45.45;21.55;;;;;;;;;;4916507;29;20442;-65
2023/01/26 18:20:16;;;;;;;41.10;19.02;;;;;;;;;;4915966;29;20036;-68
2023/01/26 18:22:42;;;;;;;47.83;21.63;;;;;;;;;;4916093;29;20028;-63
2023/01/26 18:25:08;;;;;;;48.90;24.92;;;;;;;;;;4899043;29;20068;-71
2023/01/26 18:27:34;;;;;;;44.08;21.88;;;;;;;;;;4915961;29;20477;-63
2023/01/26 18:30:00;;;;;;;54.50;25.50;;;;;;;;;;4916191;29;20032;-71
2023/01/26 18:32:26;;;;;;;54.70;25.05;;;;;;;;;;4915880;29;20420;-64
2023/01/26 18:34:52;;;;;;;50.42;25.23;;;;;;;;;;4916227;29;20040;-66
2023/01/26 18:37:18;;;;;;;53.50;25.98;;;;;;;;;;4915865;29;20028;-68
2023/01/26 18:39:44;;;;;;;46.60;22.77;;;;;;;;;;4916153;29;20060;-69
2023/01/26 18:42:10;;;;;;;53.00;26.77;;;;;;;;;;4915689;29;20034;-64
2023/01/26 18:44:36;;;;;;;50.08;25.20;;;;;;;;;;4916057;29;20111;-68
2023/01/26 18:47:03;;;;;;;56.60;25.15;;;;;;;;;;4916029;29;20111;-75
2023/01/26 18:49:29;;;;;;;42.17;22.15;;;;;;;;;;4915764;29;20038;-64
2023/01/26 18:51:55;;;;;;;53.03;26.15;;;;;;;;;;4915814;29;20107;-71
2023/01/26 18:54:23;;;;;;;40.10;20.45;;;;;;;;;;4915377;29;20047;-70
2023/01/26 18:56:49;;;;;;;61.92;27.63;;;;;;;;;;4915516;29;20024;-68
2023/01/26 18:59:16;;;;;;;34.95;16.65;;;;;;;;;;4916167;29;20040;-70
2023/01/26 19:01:42;;;;;;;50.28;21.55;;;;;;;;;;4915494;29;20040;-72
2023/01/26 19:04:08;;;;;;;53.60;24.55;;;;;;;;;;4915853;29;20408;-64
2023/01/26 19:06:35;;;;;;;49.30;23.65;;;;;;;;;;4915777;29;20039;-65
2023/01/26 19:09:03;;;;;;;29.65;14.75;;;;;;;;;;4906097;29;20065;-62
2023/01/26 19:11:33;;;;;;;52.85;23.58;;;;;;;;;;4904487;29;20098;-63
2023/01/26 19:13:59;;;;;;;42.10;19.60;;;;;;;;;;4904215;29;20051;-62
2023/01/26 19:16:25;;;;;;;38.50;17.02;;;;;;;;;;4905844;29;20028;-63
2023/01/26 19:18:53;;;;;;;75.72;31.55;;;;;;;;;;4904882;29;20035;-65
2023/01/26 19:21:20;;;;;;;72.20;29.92;;;;;;;;;;4911556;29;20028;-72
2023/01/26 19:23:47;;;;;;;43.83;20.42;;;;;;;;;;4905814;29;20480;-66
2023/01/26 19:26:15;;;;;;;49.13;21.33;;;;;;;;;;4889370;29;20497;-67
2023/01/26 19:28:41;;;;;;;46.83;20.58;;;;;;;;;;4885700;29;20033;-74
2023/01/26 19:31:07;;;;;;;49.10;20.67;;;;;;;;;;4911035;29;20067;-63
2023/01/26 19:33:33;;;;;;;52.40;25.02;;;;;;;;;;4902436;29;20070;-62
2023/01/26 19:36:01;;;;;;;45.60;20.88;;;;;;;;;;4895741;29;20041;-64
2023/01/26 19:38:27;;;;;;;50.85;23.02;;;;;;;;;;4896395;29;20033;-63
2023/01/26 19:40:53;;;;;;;43.17;19.38;;;;;;;;;;4895796;29;20032;-72
2023/01/26 19:43:19;;;;;;;46.45;21.90;;;;;;;;;;4896099;29;20032;-65
2023/01/26 19:45:49;;;;;;;42.85;19.38;;;;;;;;;;4896259;29;20029;-75
2023/01/26 19:48:15;;;;;;;44.30;21.63;;;;;;;;;;4895448;29;20033;-71
2023/01/26 19:50:41;;;;;;;43.80;21.30;;;;;;;;;;4895947;29;20444;-78
2023/01/26 19:53:07;;;;;;;52.67;24.80;;;;;;;;;;4895840;29;20582;-69
2023/01/26 19:55:33;;;;;;;58.33;23.98;;;;;;;;;;4895331;29;20115;-78
2023/01/26 19:58:00;;;;;;;60.47;24.95;;;;;;;;;;4907540;29;20032;-67
2023/01/26 20:00:26;;;;;;;65.38;24.90;;;;;;;;;;4914898;29;20063;-73
2023/01/26 20:02:52;;;;;;;49.53;21.45;;;;;;;;;;4914816;29;20055;-75
2023/01/26 20:05:18;;;;;;;53.13;21.75;;;;;;;;;;4914840;29;20028;-66
2023/01/26 20:07:44;;;;;;;47.55;21.80;;;;;;;;;;4914521;29;20046;-64
2023/01/26 20:10:11;;;;;;;46.42;21.60;;;;;;;;;;4914576;29;20477;-65
2023/01/26 20:12:37;;;;;;;57.45;24.40;;;;;;;;;;4914401;29;20127;-76
2023/01/26 20:15:03;;;;;;;43.75;20.23;;;;;;;;;;4914743;29;20028;-63
2023/01/26 20:17:29;;;;;;;49.08;21.52;;;;;;;;;;4914859;29;20039;-64
2023/01/26 20:19:55;;;;;;;54.90;24.52;;;;;;;;;;4914685;29;20078;-64
2023/01/26 20:22:23;;;;;;;52.42;22.35;;;;;;;;;;4914334;29;20040;-66
2023/01/26 20:24:49;;;;;;;56.05;24.25;;;;;;;;;;4915101;29;20028;-64
2023/01/26 20:27:16;;;;;;;73.45;31.77;;;;;;;;;;4914492;29;20028;-79
2023/01/26 20:29:42;;;;;;;57.40;25.05;;;;;;;;;;4915150;29;20032;-80
2023/01/26 20:32:08;;;;;;;64.35;28.40;;;;;;;;;;4913999;29;20028;-66
2023/01/26 20:34:34;;;;;;;42.38;21.15;;;;;;;;;;4914158;29;20044;-65
2023/01/26 20:37:00;;;;;;;56.05;26.40;;;;;;;;;;4914781;29;20020;-69
2023/01/26 20:39:27;;;;;;;44.88;21.23;;;;;;;;;;4914425;29;20055;-65
2023/01/26 20:41:54;;;;;;;45.35;22.33;;;;;;;;;;4915899;29;20028;-80
2023/01/26 20:44:20;;;;;;;42.08;20.85;;;;;;;;;;4918500;29;20036;-65
2023/01/26 20:46:46;;;;;;;46.35;22.50;;;;;;;;;;4918029;29;20028;-65
2023/01/26 20:49:13;;;;;;;41.05;20.08;;;;;;;;;;4918389;29;20123;-66
2023/01/26 20:51:41;;;;;;;56.67;27.42;;;;;;;;;;4918316;29;20059;-63
2023/01/26 20:54:08;;;;;;;55.42;25.20;;;;;;;;;;4918283;29;20098;-68
2023/01/26 20:56:34;;;;;;;54.35;24.20;;;;;;;;;;4917227;29;20455;-67
2023/01/26 20:59:00;;;;;;;39.63;19.60;;;;;;;;;;4885457;29;20120;-64
2023/01/26 21:01:27;;;;;;;42.70;20.90;;;;;;;;;;4880210;29;20088;-64
2023/01/26 21:03:53;;;;;;;35.30;17.80;;;;;;;;;;4901147;29;20919;-65
2023/01/26 21:06:21;;;;;;;39.70;17.00;;;;;;;;;;4900345;29;20035;-64